createdAt,value
2024-03-29T00:01:15.893Z,9.70
2024-03-29T00:05:14.897Z,9.71
2024-03-29T00:09:12.865Z,9.75
2024-03-29T00:13:09.875Z,9.84
2024-03-29T00:17:06.868Z,9.95
2024-03-29T00:21:03.869Z,10.03
2024-03-29T00:25:01.911Z,10.10
2024-03-29T00:28:58.932Z,10.11
2024-03-29T00:32:56.850Z,10.12
2024-03-29T00:36:53.836Z,10.13
2024-03-29T00:40:50.897Z,10.13
2024-03-29T00:44:47.868Z,10.12
2024-03-29T00:48:44.839Z,10.11
2024-03-29T00:52:41.807Z,10.11
2024-03-29T00:56:38.929Z,10.08
2024-03-29T01:00:36.903Z,10.11
2024-03-29T01:04:34.794Z,10.15
2024-03-29T01:08:32.825Z,10.19
2024-03-29T01:12:29.827Z,10.21
2024-03-29T01:16:26.825Z,10.22
2024-03-29T01:20:24.822Z,10.17
2024-03-29T01:24:21.791Z,10.13
2024-03-29T01:28:18.805Z,10.12
2024-03-29T01:32:15.776Z,10.15
2024-03-29T01:36:13.772Z,10.19
2024-03-29T01:40:11.771Z,10.13
2024-03-29T01:44:08.787Z,10.03
2024-03-29T01:48:05.751Z,9.97
2024-03-29T01:52:02.783Z,9.85
2024-03-29T01:56:00.778Z,9.78
2024-03-29T02:00:01.833Z,9.74
2024-03-29T02:03:58.739Z,9.73
2024-03-29T02:07:55.725Z,9.69
2024-03-29T02:11:52.722Z,9.60
2024-03-29T02:15:49.794Z,9.48
2024-03-29T02:19:47.743Z,9.46
2024-03-29T02:23:46.741Z,9.33
2024-03-29T02:27:43.734Z,9.29
2024-03-29T02:31:40.735Z,9.21
2024-03-29T02:35:38.733Z,9.16
2024-03-29T02:39:36.740Z,9.13
2024-03-29T02:43:34.739Z,9.03
2024-03-29T02:47:32.715Z,8.95
2024-03-29T02:51:30.791Z,8.88
2024-03-29T02:55:27.716Z,8.82
2024-03-29T02:59:25.661Z,8.75
2024-03-29T03:03:22.733Z,8.62
2024-03-29T03:07:46.669Z,8.48
2024-03-29T03:11:43.669Z,8.41
2024-03-29T03:15:40.662Z,8.35
2024-03-29T03:19:38.640Z,8.30
2024-03-29T03:23:36.800Z,8.23
2024-03-29T03:27:33.656Z,8.20
2024-03-29T03:31:31.636Z,8.20
2024-03-29T03:35:29.204Z,8.19
2024-03-29T03:39:27.648Z,8.17
2024-03-29T03:43:25.724Z,8.15
2024-03-29T03:47:23.633Z,8.07
2024-03-29T03:51:20.627Z,8.06
2024-03-29T03:55:17.610Z,8.09
2024-03-29T03:59:14.674Z,8.12
2024-03-29T04:03:12.594Z,8.08
2024-03-29T04:07:09.615Z,7.96
2024-03-29T04:11:06.670Z,7.89
2024-03-29T04:15:03.585Z,7.85
2024-03-29T04:19:01.638Z,7.82
2024-03-29T04:22:58.606Z,7.82
2024-03-29T04:26:55.596Z,7.86
2024-03-29T04:30:52.570Z,7.92
2024-03-29T04:34:50.579Z,8.00
2024-03-29T04:38:48.666Z,8.11
2024-03-29T04:42:45.534Z,8.23
2024-03-29T04:46:44.546Z,8.36
2024-03-29T04:50:42.563Z,8.54
2024-03-29T04:54:39.557Z,8.68
2024-03-29T04:58:41.555Z,8.86
2024-03-29T05:02:38.537Z,9.01
2024-03-29T05:06:35.548Z,9.22
2024-03-29T05:10:32.549Z,9.25
2024-03-29T05:14:31.556Z,9.33
2024-03-29T05:18:29.586Z,9.35
2024-03-29T05:22:26.489Z,9.45
2024-03-29T05:26:24.506Z,9.54
2024-03-29T05:30:21.513Z,9.50
2024-03-29T05:34:18.544Z,9.60
2024-03-29T05:38:15.510Z,9.67
2024-03-29T05:42:13.549Z,9.67
2024-03-29T05:46:10.506Z,9.67
2024-03-29T05:50:08.551Z,9.52
2024-03-29T05:54:05.483Z,9.41
2024-03-29T05:58:02.529Z,9.23
2024-03-29T06:02:00.460Z,9.14
2024-03-29T06:05:57.459Z,9.24
2024-03-29T06:09:54.488Z,9.44
2024-03-29T06:14:09.466Z,9.60
2024-03-29T06:18:06.457Z,9.74
2024-03-29T06:22:03.441Z,9.85
2024-03-29T06:26:01.484Z,10.04
2024-03-29T06:29:58.427Z,10.08
2024-03-29T06:33:35.734Z,10.16
2024-03-29T06:36:59.159Z,10.18
2024-03-29T06:40:22.610Z,10.22
2024-03-29T06:43:46.441Z,10.33
2024-03-29T06:47:10.573Z,10.39
2024-03-29T06:50:34.071Z,10.39
2024-03-29T06:53:58.010Z,10.42
2024-03-29T06:57:26.119Z,10.50
2024-03-29T07:00:50.220Z,10.60
2024-03-29T07:04:13.780Z,10.75
2024-03-29T07:07:37.858Z,10.83
2024-03-29T07:11:04.916Z,10.95
2024-03-29T07:14:29.418Z,11.03
2024-03-29T07:17:53.566Z,11.02
2024-03-29T07:21:17.454Z,11.00
2024-03-29T07:24:41.098Z,11.03
2024-03-29T07:28:05.055Z,11.10
2024-03-29T07:31:28.586Z,11.25
2024-03-29T07:34:52.040Z,11.32
2024-03-29T07:38:16.394Z,11.41
2024-03-29T07:41:40.035Z,11.48
2024-03-29T07:45:04.080Z,11.56
2024-03-29T07:48:27.702Z,11.61
2024-03-29T07:51:51.349Z,11.69
2024-03-29T07:55:15.365Z,11.79
2024-03-29T07:58:38.873Z,11.85
2024-03-29T08:02:03.415Z,11.88
2024-03-29T08:05:26.996Z,11.97
2024-03-29T08:08:51.685Z,12.06
2024-03-29T08:12:15.176Z,12.14
2024-03-29T08:15:38.758Z,12.27
2024-03-29T08:19:02.241Z,12.36
2024-03-29T08:22:25.822Z,12.45
2024-03-29T08:25:49.899Z,12.47
2024-03-29T08:29:13.429Z,12.50
2024-03-29T08:32:36.922Z,12.57
2024-03-29T08:36:00.480Z,12.67
2024-03-29T08:39:23.993Z,12.76
2024-03-29T08:42:47.563Z,12.92
2024-03-29T08:46:11.085Z,13.10
2024-03-29T08:49:34.612Z,13.18
2024-03-29T08:52:58.290Z,13.26
2024-03-29T08:56:21.829Z,13.41
2024-03-29T08:59:46.347Z,13.57
2024-03-29T09:03:09.883Z,13.68
2024-03-29T09:06:33.516Z,13.73
2024-03-29T09:09:57.004Z,13.73
2024-03-29T09:13:20.488Z,13.71
2024-03-29T09:16:44.041Z,13.70
2024-03-29T09:20:08.820Z,13.80
2024-03-29T09:23:32.313Z,13.91
2024-03-29T09:26:55.847Z,13.81
2024-03-29T09:30:19.885Z,13.77
2024-03-29T09:33:43.301Z,13.95
2024-03-29T09:37:06.755Z,14.08
2024-03-29T09:40:30.377Z,14.06
2024-03-29T09:43:55.828Z,14.12
2024-03-29T09:47:20.488Z,14.22
2024-03-29T09:50:44.111Z,14.35
2024-03-29T09:54:12.852Z,14.45
2024-03-29T09:57:37.224Z,14.41
2024-03-29T10:01:00.732Z,14.43
2024-03-29T10:04:25.997Z,14.48
2024-03-29T10:07:50.041Z,14.58
2024-03-29T10:11:13.731Z,14.76
2024-03-29T10:14:50.249Z,14.95
2024-03-29T10:18:13.825Z,15.10
2024-03-29T10:21:37.731Z,15.18
2024-03-29T10:25:01.213Z,15.26
2024-03-29T10:28:25.722Z,15.25
2024-03-29T10:31:50.790Z,15.28
2024-03-29T10:35:14.266Z,15.34
2024-03-29T10:38:37.892Z,15.38
2024-03-29T10:42:02.121Z,15.59
2024-03-29T10:45:26.445Z,15.86
2024-03-29T10:48:51.115Z,15.98
2024-03-29T10:52:18.113Z,16.20
2024-03-29T10:55:42.363Z,16.27
2024-03-29T10:59:23.276Z,16.30
2024-03-29T11:03:05.380Z,16.50
2024-03-29T11:06:33.269Z,16.68
2024-03-29T11:10:02.366Z,16.78
2024-03-29T11:14:08.008Z,16.98
2024-03-29T11:17:32.858Z,16.73
2024-03-29T11:20:59.766Z,16.84
2024-03-29T11:24:25.353Z,16.99
2024-03-29T11:27:49.836Z,17.20
2024-03-29T11:31:15.715Z,17.26
2024-03-29T11:34:45.935Z,17.53
2024-03-29T11:38:09.728Z,17.68
2024-03-29T11:41:33.403Z,17.67
2024-03-29T11:44:56.984Z,17.59
2024-03-29T11:48:28.580Z,17.57
2024-03-29T11:51:52.171Z,17.60
2024-03-29T11:55:16.192Z,17.70
2024-03-29T11:58:40.093Z,17.72
2024-03-29T12:02:04.186Z,17.87
2024-03-29T12:05:27.754Z,17.97
2024-03-29T12:08:54.170Z,18.07
2024-03-29T12:12:18.681Z,18.27
2024-03-29T12:15:42.427Z,18.41
2024-03-29T12:19:05.916Z,18.44
2024-03-29T12:22:29.391Z,18.39
2024-03-29T12:25:58.568Z,18.45
2024-03-29T12:29:22.499Z,18.39
2024-03-29T12:32:46.237Z,18.68
2024-03-29T12:36:09.921Z,18.92
2024-03-29T12:39:34.693Z,18.99
2024-03-29T12:42:59.584Z,19.13
2024-03-29T12:46:23.156Z,19.28
2024-03-29T12:49:46.621Z,19.36
2024-03-29T12:53:12.641Z,19.40
2024-03-29T12:56:37.661Z,19.48
2024-03-29T13:00:02.036Z,19.71
2024-03-29T13:03:26.107Z,19.83
2024-03-29T13:06:50.192Z,19.85
2024-03-29T13:10:15.793Z,19.92
2024-03-29T13:13:39.466Z,20.21
2024-03-29T13:17:03.142Z,20.39
2024-03-29T13:20:26.606Z,20.40
2024-03-29T13:23:50.245Z,20.54
2024-03-29T13:27:14.413Z,20.66
2024-03-29T13:30:43.939Z,20.84
2024-03-29T13:34:13.262Z,20.79
2024-03-29T13:37:41.946Z,20.66
2024-03-29T13:41:06.524Z,20.54
2024-03-29T13:44:32.084Z,20.70
2024-03-29T13:47:56.512Z,20.68
2024-03-29T13:51:20.103Z,20.84
2024-03-29T13:54:47.774Z,20.90
2024-03-29T13:58:11.568Z,21.01
2024-03-29T14:01:35.280Z,21.03
2024-03-29T14:04:59.618Z,21.04
2024-03-29T14:08:23.102Z,21.20
2024-03-29T14:11:47.894Z,21.26
2024-03-29T14:15:11.353Z,21.11
2024-03-29T14:18:38.172Z,21.01
2024-03-29T14:22:05.392Z,20.82
2024-03-29T14:25:28.976Z,20.74
2024-03-29T14:28:52.557Z,20.66
2024-03-29T14:32:16.113Z,20.47
2024-03-29T14:35:39.950Z,20.39
2024-03-29T14:39:03.419Z,20.25
2024-03-29T14:42:27.044Z,20.18
2024-03-29T14:45:51.280Z,20.24
2024-03-29T14:49:14.989Z,20.23
2024-03-29T14:52:41.489Z,20.15
2024-03-29T14:56:13.506Z,20.03
2024-03-29T14:59:41.707Z,20.11
2024-03-29T15:03:05.415Z,20.10
2024-03-29T15:06:29.123Z,20.26
2024-03-29T15:09:52.981Z,20.46
2024-03-29T15:13:16.450Z,20.46
2024-03-29T15:16:39.950Z,20.41
2024-03-29T15:20:06.128Z,20.46
2024-03-29T15:23:30.471Z,20.59
2024-03-29T15:26:59.159Z,20.51
2024-03-29T15:30:22.655Z,20.10
2024-03-29T15:33:46.246Z,19.89
2024-03-29T15:37:09.736Z,19.68
2024-03-29T15:40:33.199Z,19.48
2024-03-29T15:43:58.845Z,19.28
2024-03-29T15:47:23.067Z,19.08
2024-03-29T15:50:48.085Z,18.96
2024-03-29T15:54:17.399Z,18.84
2024-03-29T15:57:42.221Z,18.73
2024-03-29T16:01:06.003Z,18.57
2024-03-29T16:04:29.634Z,18.42
2024-03-29T16:07:53.397Z,18.26
2024-03-29T16:11:17.236Z,18.12
2024-03-29T16:14:40.754Z,17.98
2024-03-29T16:18:04.456Z,17.82
2024-03-29T16:21:28.422Z,17.67
2024-03-29T16:24:51.915Z,17.52
2024-03-29T16:28:16.288Z,17.41
2024-03-29T16:31:39.884Z,17.25
2024-03-29T16:35:03.438Z,17.08
2024-03-29T16:38:27.010Z,16.92
2024-03-29T16:41:50.970Z,16.79
2024-03-29T16:45:14.550Z,16.63
2024-03-29T16:48:38.164Z,16.46
2024-03-29T16:52:01.676Z,16.28
2024-03-29T16:55:26.430Z,16.09
2024-03-29T16:58:50.086Z,15.92
2024-03-29T17:02:13.801Z,15.75
2024-03-29T17:05:37.490Z,15.58
2024-03-29T17:09:01.056Z,15.40
2024-03-29T17:12:26.143Z,15.24
2024-03-29T17:15:50.646Z,15.09
2024-03-29T17:19:14.423Z,14.95
2024-03-29T17:22:39.108Z,14.83
2024-03-29T17:26:02.567Z,14.66
2024-03-29T17:29:26.815Z,14.53
2024-03-29T17:32:50.623Z,14.39
2024-03-29T17:36:14.068Z,14.27
2024-03-29T17:39:37.618Z,14.17
2024-03-29T17:43:01.239Z,14.06
2024-03-29T17:46:24.887Z,13.93
2024-03-29T17:49:48.426Z,13.82
2024-03-29T17:53:12.138Z,13.72
2024-03-29T17:56:35.672Z,13.63
2024-03-29T18:00:00.494Z,13.52
2024-03-29T18:03:24.642Z,13.40
2024-03-29T18:06:48.281Z,13.27
2024-03-29T18:10:12.409Z,13.17
2024-03-29T18:13:37.424Z,13.08
2024-03-29T18:17:00.987Z,12.97
2024-03-29T18:20:24.583Z,12.89
2024-03-29T18:23:48.079Z,12.81
2024-03-29T18:27:11.574Z,12.71
2024-03-29T18:30:36.892Z,12.63
2024-03-29T18:34:00.511Z,12.54
2024-03-29T18:37:24.048Z,12.48
2024-03-29T18:40:48.515Z,12.42
2024-03-29T18:44:11.997Z,12.34
2024-03-29T18:47:35.580Z,12.27
2024-03-29T18:51:00.453Z,12.20
2024-03-29T18:54:24.209Z,12.16
2024-03-29T18:57:47.691Z,12.11
2024-03-29T19:01:11.111Z,12.07
2024-03-29T19:04:35.243Z,12.03
2024-03-29T19:07:59.069Z,12.00
2024-03-29T19:11:24.975Z,11.94
2024-03-29T19:14:49.210Z,11.90
2024-03-29T19:18:14.524Z,11.85
2024-03-29T19:21:39.708Z,11.82
2024-03-29T19:25:03.215Z,11.77
2024-03-29T19:28:28.140Z,11.72
2024-03-29T19:31:51.734Z,11.68
2024-03-29T19:35:15.368Z,11.64
2024-03-29T19:38:38.861Z,11.60
2024-03-29T19:42:02.658Z,11.56
2024-03-29T19:45:26.258Z,11.54
2024-03-29T19:48:50.356Z,11.53
2024-03-29T19:52:13.923Z,11.52
2024-03-29T19:55:37.381Z,11.54
2024-03-29T19:59:01.165Z,11.55
2024-03-29T20:02:24.826Z,11.56
2024-03-29T20:05:48.314Z,11.58
2024-03-29T20:09:11.876Z,11.60
2024-03-29T20:12:35.438Z,11.61
2024-03-29T20:15:59.105Z,11.61
2024-03-29T20:19:27.600Z,11.62
2024-03-29T20:22:52.692Z,11.62
2024-03-29T20:26:16.259Z,11.62
2024-03-29T20:29:39.831Z,11.63
2024-03-29T20:33:04.617Z,11.63
2024-03-29T20:36:28.088Z,11.62
2024-03-29T20:39:51.594Z,11.62
2024-03-29T20:43:15.148Z,11.64
2024-03-29T20:46:38.643Z,11.66
2024-03-29T20:50:02.304Z,11.70
2024-03-29T20:53:25.938Z,11.72
2024-03-29T20:56:49.786Z,11.72
2024-03-29T21:00:13.778Z,11.71
2024-03-29T21:03:54.741Z,11.69
2024-03-29T21:07:18.393Z,11.62
2024-03-29T21:10:41.920Z,11.56
2024-03-29T21:14:05.492Z,11.51
2024-03-29T21:17:29.246Z,11.46
2024-03-29T21:20:53.095Z,11.41
2024-03-29T21:24:17.748Z,11.35
2024-03-29T21:27:45.269Z,11.31
2024-03-29T21:31:08.851Z,11.25
2024-03-29T21:34:32.330Z,11.20
2024-03-29T21:37:56.206Z,11.14
2024-03-29T21:41:19.990Z,11.09
2024-03-29T21:44:43.744Z,11.05
2024-03-29T21:48:07.516Z,11.00
2024-03-29T21:51:31.207Z,11.00
2024-03-29T21:54:54.874Z,11.02
2024-03-29T21:58:18.408Z,11.06
2024-03-29T22:01:42.258Z,11.11
2024-03-29T22:05:05.957Z,11.15
2024-03-29T22:08:29.491Z,11.17
2024-03-29T22:11:53.064Z,11.17
2024-03-29T22:15:36.542Z,11.16
2024-03-29T22:19:33.495Z,11.15
2024-03-29T22:23:31.469Z,11.13
2024-03-29T22:27:28.513Z,11.11
2024-03-29T22:31:26.467Z,11.09
2024-03-29T22:35:23.549Z,11.07
2024-03-29T22:39:20.457Z,11.05
2024-03-29T22:43:17.440Z,11.06
2024-03-29T22:47:15.457Z,11.07
2024-03-29T22:51:13.423Z,11.11
2024-03-29T22:55:10.499Z,11.18
2024-03-29T22:59:10.462Z,11.22
2024-03-29T23:03:07.408Z,11.24
2024-03-29T23:07:12.426Z,11.22
2024-03-29T23:11:10.427Z,11.21
2024-03-29T23:15:07.474Z,11.17
2024-03-29T23:19:05.399Z,11.12
2024-03-29T23:23:05.388Z,11.08
2024-03-29T23:27:02.421Z,11.02
2024-03-29T23:31:00.418Z,10.99
2024-03-29T23:34:57.375Z,10.95
2024-03-29T23:38:54.393Z,10.95
2024-03-29T23:42:52.413Z,11.00
2024-03-29T23:46:49.397Z,11.07
2024-03-29T23:50:46.405Z,11.14
2024-03-29T23:54:43.377Z,11.19
2024-03-29T23:58:41.382Z,11.25
